createdAt,value
2019-03-19T00:00:33.973Z,6.47
2019-03-19T00:03:07.121Z,12.40
2019-03-19T00:05:36.061Z,10.25
2019-03-19T00:08:04.853Z,10.48
2019-03-19T00:10:34.115Z,7.97
2019-03-19T00:13:03.209Z,8.93
2019-03-19T00:15:32.292Z,8.98
2019-03-19T00:18:01.299Z,10.30
2019-03-19T00:20:30.407Z,10.25
2019-03-19T00:22:59.552Z,9.33
2019-03-19T00:25:30.279Z,9.43
2019-03-19T00:27:59.671Z,11.28
2019-03-19T00:30:29.101Z,9.10
2019-03-19T00:32:58.356Z,9.25
2019-03-19T00:35:29.143Z,8.58
2019-03-19T00:37:58.351Z,10.58
2019-03-19T00:40:27.636Z,8.13
2019-03-19T00:42:56.744Z,10.38
2019-03-19T00:45:27.049Z,13.72
2019-03-19T00:47:56.109Z,7.80
2019-03-19T00:50:25.261Z,8.30
2019-03-19T00:52:54.539Z,13.25
2019-03-19T00:55:23.714Z,4.53
2019-03-19T00:57:52.939Z,9.13
2019-03-19T01:00:22.201Z,10.25
2019-03-19T01:02:51.311Z,8.08
2019-03-19T01:05:20.480Z,8.80
2019-03-19T01:07:49.555Z,10.08
2019-03-19T01:10:18.923Z,12.53
2019-03-19T01:12:48.095Z,11.60
2019-03-19T01:15:17.097Z,8.30
2019-03-19T01:17:46.316Z,8.53
2019-03-19T01:20:16.169Z,9.93
2019-03-19T01:22:45.177Z,10.28
2019-03-19T01:25:14.355Z,7.22
2019-03-19T01:27:43.533Z,10.15
2019-03-19T01:30:17.096Z,8.80
2019-03-19T01:32:46.167Z,10.98
2019-03-19T01:35:15.113Z,12.13
2019-03-19T01:37:44.313Z,10.95
2019-03-19T01:40:13.738Z,14.38
2019-03-19T01:42:42.881Z,13.08
2019-03-19T01:45:17.855Z,10.08
2019-03-19T01:47:47.115Z,10.50
2019-03-19T01:50:16.792Z,10.53
2019-03-19T01:52:45.584Z,10.68
2019-03-19T01:55:15.318Z,11.60
2019-03-19T01:57:44.434Z,12.85
2019-03-19T02:00:15.750Z,6.70
2019-03-19T02:02:45.831Z,10.03
2019-03-19T02:05:14.904Z,8.33
2019-03-19T02:07:45.239Z,14.20
2019-03-19T02:10:15.006Z,7.17
2019-03-19T02:12:45.887Z,10.50
2019-03-19T02:15:17.220Z,9.13
2019-03-19T02:17:46.398Z,9.95
2019-03-19T02:20:16.461Z,10.08
2019-03-19T02:22:45.915Z,9.00
2019-03-19T02:25:16.631Z,15.20
2019-03-19T02:27:45.778Z,9.58
2019-03-19T02:30:16.128Z,12.30
2019-03-19T02:32:45.382Z,12.68
2019-03-19T02:35:14.745Z,8.28
2019-03-19T02:37:44.006Z,8.63
2019-03-19T02:40:15.106Z,7.55
2019-03-19T02:42:44.305Z,13.13
2019-03-19T02:45:14.343Z,8.05
2019-03-19T02:47:43.428Z,10.95
2019-03-19T02:50:16.536Z,12.37
2019-03-19T02:52:45.707Z,12.73
2019-03-19T02:55:15.079Z,9.78
2019-03-19T02:57:44.400Z,9.85
2019-03-19T03:00:17.640Z,9.15
2019-03-19T03:02:46.750Z,7.22
2019-03-19T03:05:19.987Z,12.30
2019-03-19T03:07:50.391Z,7.42
2019-03-19T03:10:19.637Z,8.65
2019-03-19T03:12:48.819Z,9.15
2019-03-19T03:15:18.121Z,9.83
2019-03-19T03:17:47.485Z,16.85
2019-03-19T03:20:18.461Z,10.78
2019-03-19T03:22:47.668Z,9.00
2019-03-19T03:25:17.851Z,11.18
2019-03-19T03:27:47.128Z,12.18
2019-03-19T03:30:22.984Z,8.40
2019-03-19T03:32:52.477Z,10.58
2019-03-19T03:35:21.619Z,11.60
2019-03-19T03:37:51.173Z,10.08
2019-03-19T03:40:23.521Z,15.30
2019-03-19T03:42:52.772Z,14.40
2019-03-19T03:45:22.044Z,9.75
2019-03-19T03:47:51.320Z,8.28
2019-03-19T03:50:20.645Z,17.12
2019-03-19T03:52:49.865Z,9.45
2019-03-19T03:55:21.558Z,11.85
2019-03-19T03:57:51.270Z,9.80
2019-03-19T04:00:24.014Z,15.75
2019-03-19T04:02:53.678Z,10.13
2019-03-19T04:05:23.061Z,10.40
2019-03-19T04:07:52.257Z,11.45
2019-03-19T04:10:21.515Z,12.65
2019-03-19T04:12:50.725Z,9.80
2019-03-19T04:15:19.987Z,12.28
2019-03-19T04:17:49.303Z,10.03
2019-03-19T04:20:18.604Z,9.10
2019-03-19T04:22:47.851Z,8.75
2019-03-19T04:25:17.192Z,12.53
2019-03-19T04:27:46.341Z,11.03
2019-03-19T04:30:21.684Z,11.73
2019-03-19T04:32:51.173Z,12.93
2019-03-19T04:35:20.462Z,8.23
2019-03-19T04:37:49.810Z,8.20
2019-03-19T04:40:18.871Z,9.20
2019-03-19T04:42:48.018Z,14.68
2019-03-19T04:45:17.903Z,9.88
2019-03-19T04:47:47.116Z,8.53
2019-03-19T04:50:16.881Z,13.03
2019-03-19T04:52:46.437Z,11.12
2019-03-19T04:55:16.244Z,9.95
2019-03-19T04:57:45.481Z,17.48
2019-03-19T05:00:19.723Z,12.28
2019-03-19T05:02:48.946Z,10.58
2019-03-19T05:05:17.999Z,14.83
2019-03-19T05:07:47.108Z,12.78
2019-03-19T05:10:16.813Z,11.53
2019-03-19T05:12:46.184Z,13.10
2019-03-19T05:15:15.448Z,10.72
2019-03-19T05:17:44.804Z,10.95
2019-03-19T05:20:17.288Z,15.88
2019-03-19T05:22:46.508Z,20.60
2019-03-19T05:25:15.600Z,11.20
2019-03-19T05:27:44.735Z,9.85
2019-03-19T05:30:16.124Z,11.60
2019-03-19T05:32:45.152Z,10.15
2019-03-19T05:35:14.246Z,12.50
2019-03-19T05:37:43.578Z,10.18
2019-03-19T05:40:13.466Z,9.18
2019-03-19T05:42:42.756Z,12.43
2019-03-19T05:45:15.164Z,15.70
2019-03-19T05:47:44.118Z,12.65
2019-03-19T05:50:15.227Z,13.45
2019-03-19T05:52:44.459Z,11.30
2019-03-19T05:55:13.465Z,13.90
2019-03-19T05:57:49.580Z,15.72
2019-03-19T06:00:15.569Z,11.43
2019-03-19T06:02:44.765Z,14.75
2019-03-19T06:05:14.003Z,12.50
2019-03-19T06:07:42.918Z,11.15
2019-03-19T06:10:15.209Z,12.68
2019-03-19T06:12:44.224Z,11.97
2019-03-19T06:15:14.623Z,13.45
2019-03-19T06:17:43.672Z,11.18
2019-03-19T06:20:17.893Z,12.95
2019-03-19T06:22:47.111Z,12.78
2019-03-19T06:25:16.230Z,11.05
2019-03-19T06:27:45.462Z,14.95
2019-03-19T06:30:24.580Z,15.18
2019-03-19T06:32:53.666Z,11.48
2019-03-19T06:35:22.837Z,10.63
2019-03-19T06:37:52.136Z,17.52
2019-03-19T06:40:23.120Z,14.50
2019-03-19T06:42:52.273Z,10.28
2019-03-19T06:45:23.041Z,10.85
2019-03-19T06:47:52.251Z,16.48
2019-03-19T06:50:21.708Z,16.27
2019-03-19T06:52:50.860Z,11.10
2019-03-19T06:55:20.889Z,14.10
2019-03-19T06:57:50.150Z,17.57
2019-03-19T07:00:23.050Z,13.98
2019-03-19T07:02:52.195Z,14.33
2019-03-19T07:05:21.708Z,14.33
2019-03-19T07:07:50.775Z,17.57
2019-03-19T07:10:23.161Z,16.45
2019-03-19T07:12:53.793Z,16.90
2019-03-19T07:15:23.730Z,16.05
2019-03-19T07:17:55.386Z,19.45
2019-03-19T07:20:28.477Z,19.85
2019-03-19T07:22:57.549Z,13.53
2019-03-19T07:25:26.848Z,19.60
2019-03-19T07:27:55.922Z,17.92
2019-03-19T07:30:25.705Z,16.10
2019-03-19T07:32:54.808Z,17.45
2019-03-19T07:35:23.920Z,18.05
2019-03-19T07:37:53.179Z,19.67
2019-03-19T07:40:22.259Z,27.82
2019-03-19T07:42:51.599Z,21.62
2019-03-19T07:45:22.829Z,17.25
2019-03-19T07:47:52.350Z,17.92
2019-03-19T07:50:24.557Z,17.60
2019-03-19T07:52:53.748Z,15.63
2019-03-19T07:55:22.850Z,22.50
2019-03-19T07:57:51.982Z,22.35
2019-03-19T08:00:21.882Z,18.67
2019-03-19T08:02:51.074Z,15.23
2019-03-19T08:05:20.127Z,17.10
2019-03-19T08:07:49.572Z,16.23
2019-03-19T08:10:21.197Z,15.93
2019-03-19T08:12:50.431Z,15.65
2019-03-19T08:15:21.517Z,10.88
2019-03-19T08:17:50.621Z,14.20
2019-03-19T08:20:19.965Z,17.67
2019-03-19T08:22:49.280Z,17.25
2019-03-19T08:25:18.596Z,19.20
2019-03-19T08:27:47.758Z,18.25
2019-03-19T08:30:24.259Z,17.35
2019-03-19T08:32:52.839Z,19.12
2019-03-19T08:35:22.009Z,11.80
2019-03-19T08:37:51.263Z,13.35
2019-03-19T08:40:20.873Z,15.13
2019-03-19T08:42:50.130Z,13.68
2019-03-19T08:45:23.703Z,22.02
2019-03-19T08:47:53.030Z,10.28
2019-03-19T08:50:22.820Z,15.30
2019-03-19T08:52:52.132Z,12.07
2019-03-19T08:55:22.750Z,10.82
2019-03-19T08:57:51.999Z,11.43
2019-03-19T09:00:26.251Z,13.30
2019-03-19T09:02:55.413Z,11.83
2019-03-19T09:05:24.745Z,15.18
2019-03-19T09:07:54.031Z,13.00
2019-03-19T09:10:23.025Z,13.10
2019-03-19T09:12:52.661Z,11.15
2019-03-19T09:15:24.265Z,13.68
2019-03-19T09:17:53.502Z,10.50
2019-03-19T09:20:22.858Z,12.70
2019-03-19T09:22:51.976Z,12.10
2019-03-19T09:25:21.117Z,15.95
2019-03-19T09:27:50.392Z,15.40
2019-03-19T09:30:20.639Z,10.63
2019-03-19T09:32:49.861Z,9.33
2019-03-19T09:35:19.140Z,11.88
2019-03-19T09:37:58.380Z,11.88
2019-03-19T09:40:23.639Z,8.00
2019-03-19T09:42:52.908Z,9.00
2019-03-19T09:45:21.906Z,10.68
2019-03-19T09:47:51.216Z,8.33
2019-03-19T09:50:25.304Z,11.50
2019-03-19T09:52:54.647Z,12.93
2019-03-19T09:55:23.956Z,10.58
2019-03-19T09:57:53.130Z,8.45
2019-03-19T10:00:23.076Z,14.03
2019-03-19T10:02:52.321Z,10.63
2019-03-19T10:05:21.532Z,13.30
2019-03-19T10:07:50.789Z,11.60
2019-03-19T10:10:22.013Z,14.13
2019-03-19T10:12:51.313Z,11.05
2019-03-19T10:15:20.530Z,11.70
2019-03-19T10:17:49.811Z,16.82
2019-03-19T10:20:22.997Z,12.43
2019-03-19T10:22:55.346Z,9.08
2019-03-19T10:25:24.638Z,10.93
2019-03-19T10:27:53.913Z,8.48
2019-03-19T10:30:23.816Z,11.48
2019-03-19T10:32:53.025Z,11.18
2019-03-19T10:35:22.297Z,11.20
2019-03-19T10:37:51.871Z,9.83
2019-03-19T10:40:21.497Z,13.48
2019-03-19T10:42:50.713Z,10.63
2019-03-19T10:45:21.810Z,12.10
2019-03-19T10:47:51.094Z,11.78
2019-03-19T10:50:26.916Z,10.48
2019-03-19T10:52:56.289Z,13.00
2019-03-19T10:55:25.392Z,12.53
2019-03-19T10:57:54.662Z,8.15
2019-03-19T11:00:23.926Z,12.05
2019-03-19T11:02:53.173Z,22.77
2019-03-19T11:05:23.061Z,7.08
2019-03-19T11:07:52.300Z,10.08
2019-03-19T11:10:21.568Z,11.33
2019-03-19T11:12:50.916Z,12.98
2019-03-19T11:15:24.525Z,7.90
2019-03-19T11:17:53.816Z,9.15
2019-03-19T11:20:23.147Z,10.05
2019-03-19T11:22:52.336Z,9.95
2019-03-19T11:25:26.011Z,8.98
2019-03-19T11:27:55.208Z,8.28
2019-03-19T11:30:29.433Z,14.23
2019-03-19T11:35:27.065Z,9.83
2019-03-19T11:37:56.313Z,9.85
2019-03-19T11:40:26.043Z,11.20
2019-03-19T11:42:55.636Z,9.58
2019-03-19T11:45:25.115Z,9.65
2019-03-19T11:47:54.472Z,11.12
2019-03-19T11:50:25.540Z,8.35
2019-03-19T11:52:54.657Z,9.55
2019-03-19T11:55:23.993Z,10.10
2019-03-19T11:57:53.367Z,10.48
2019-03-19T12:00:43.559Z,7.95
2019-03-19T12:03:16.073Z,10.00
2019-03-19T12:05:43.700Z,7.65
2019-03-19T12:08:12.952Z,9.25
2019-03-19T12:10:42.158Z,10.72
2019-03-19T12:13:11.221Z,9.60
2019-03-19T12:15:40.359Z,9.18
2019-03-19T12:18:09.610Z,6.92
2019-03-19T12:20:38.948Z,14.45
2019-03-19T12:23:08.327Z,9.85
2019-03-19T12:25:37.530Z,10.60
2019-03-19T12:28:06.691Z,9.95
2019-03-19T12:30:35.804Z,12.68
2019-03-19T12:33:05.152Z,7.83
2019-03-19T12:35:34.363Z,11.28
2019-03-19T12:38:03.672Z,8.63
2019-03-19T12:40:37.139Z,7.05
2019-03-19T12:43:03.789Z,6.97
2019-03-19T12:45:33.154Z,9.55
2019-03-19T12:48:02.165Z,11.08
2019-03-19T12:50:31.160Z,7.42
2019-03-19T12:53:00.674Z,6.45
2019-03-19T12:55:29.846Z,6.55
2019-03-19T12:58:01.162Z,8.98
2019-03-19T13:00:34.486Z,10.20
2019-03-19T13:03:00.937Z,10.32
2019-03-19T13:05:30.214Z,7.37
2019-03-19T13:07:59.535Z,6.17
2019-03-19T13:10:28.660Z,4.85
2019-03-19T13:12:57.964Z,11.10
2019-03-19T13:15:27.368Z,6.25
2019-03-19T13:17:56.521Z,9.30
2019-03-19T13:20:25.744Z,7.10
2019-03-19T13:22:54.881Z,8.08
2019-03-19T13:25:25.982Z,7.80
2019-03-19T13:27:55.077Z,9.73
2019-03-19T13:30:32.189Z,8.48
2019-03-19T13:33:01.165Z,6.62
2019-03-19T13:35:30.320Z,6.60
2019-03-19T13:37:59.607Z,10.35
2019-03-19T13:40:28.731Z,8.33
2019-03-19T13:42:58.030Z,7.87
2019-03-19T13:45:27.425Z,7.92
2019-03-19T13:47:56.751Z,7.55
2019-03-19T13:50:26.059Z,6.72
2019-03-19T13:52:55.371Z,10.70
2019-03-19T13:55:24.570Z,12.10
2019-03-19T13:57:53.590Z,7.50
2019-03-19T14:00:22.794Z,10.82
2019-03-19T14:02:51.993Z,11.97
2019-03-19T14:05:21.340Z,10.13
2019-03-19T14:07:50.391Z,15.65
2019-03-19T14:10:20.239Z,10.00
2019-03-19T14:12:49.479Z,7.47
2019-03-19T14:15:19.931Z,6.53
2019-03-19T14:17:49.198Z,7.45
2019-03-19T14:20:18.191Z,8.63
2019-03-19T14:22:48.889Z,7.33
2019-03-19T14:25:17.970Z,6.95
2019-03-19T14:27:47.155Z,12.58
2019-03-19T14:30:26.729Z,8.25
2019-03-19T14:32:55.923Z,6.12
2019-03-19T14:35:25.168Z,6.90
2019-03-19T14:37:54.406Z,8.08
2019-03-19T14:40:24.312Z,11.78
2019-03-19T14:42:53.568Z,10.18
2019-03-19T14:45:22.708Z,8.33
2019-03-19T14:47:52.065Z,8.28
2019-03-19T14:50:27.741Z,7.50
2019-03-19T14:52:56.971Z,11.88
2019-03-19T14:55:26.022Z,7.92
2019-03-19T14:57:55.449Z,10.72
2019-03-19T15:00:24.604Z,9.10
2019-03-19T15:02:53.823Z,7.45
2019-03-19T15:05:23.188Z,5.92
2019-03-19T15:07:52.494Z,5.42
2019-03-19T15:10:22.565Z,11.90
2019-03-19T15:12:51.887Z,8.90
2019-03-19T15:15:23.964Z,7.67
2019-03-19T15:17:53.184Z,7.40
2019-03-19T15:20:29.188Z,10.88
2019-03-19T15:22:58.300Z,9.63
2019-03-19T15:25:27.418Z,7.50
2019-03-19T15:27:56.556Z,8.40
2019-03-19T15:30:25.907Z,6.45
2019-03-19T15:32:55.250Z,7.47
2019-03-19T15:35:24.352Z,13.10
2019-03-19T15:37:53.465Z,8.38
2019-03-19T15:40:22.611Z,6.72
2019-03-19T15:42:51.744Z,8.65
2019-03-19T15:45:23.128Z,8.98
2019-03-19T15:47:52.397Z,9.48
2019-03-19T15:50:21.676Z,7.72
2019-03-19T15:52:51.089Z,8.60
2019-03-19T15:55:20.323Z,7.17
2019-03-19T15:57:49.617Z,6.65
2019-03-19T16:00:19.696Z,8.95
2019-03-19T16:02:49.038Z,7.58
2019-03-19T16:05:18.153Z,5.83
2019-03-19T16:07:47.220Z,6.83
2019-03-19T16:10:19.560Z,10.80
2019-03-19T16:12:48.954Z,8.40
2019-03-19T16:15:22.385Z,10.60
2019-03-19T16:17:51.668Z,9.23
2019-03-19T16:20:21.444Z,11.88
2019-03-19T16:22:50.638Z,12.33
2019-03-19T16:25:19.880Z,10.75
2019-03-19T16:27:49.025Z,14.03
2019-03-19T16:30:21.333Z,8.65
2019-03-19T16:32:50.536Z,8.25
2019-03-19T16:35:19.694Z,10.13
2019-03-19T16:37:50.072Z,6.85
2019-03-19T16:40:20.244Z,9.40
2019-03-19T16:42:49.604Z,6.53
2019-03-19T16:45:18.862Z,7.90
2019-03-19T16:47:48.054Z,7.08
2019-03-19T16:50:18.218Z,7.53
2019-03-19T16:52:47.374Z,11.45
2019-03-19T16:55:17.461Z,7.97
2019-03-19T16:57:48.071Z,7.28
2019-03-19T17:00:22.317Z,7.15
2019-03-19T17:05:20.009Z,5.90
2019-03-19T17:07:49.449Z,7.10
2019-03-19T17:10:26.310Z,7.58
2019-03-19T17:12:55.320Z,9.33
2019-03-19T17:15:24.441Z,9.53
2019-03-19T17:17:53.614Z,8.90
2019-03-19T17:20:22.808Z,4.95
2019-03-19T17:22:52.060Z,9.45
2019-03-19T17:25:30.591Z,7.95
2019-03-19T17:27:59.755Z,6.47
2019-03-19T17:30:34.203Z,10.10
2019-03-19T17:33:03.300Z,8.58
2019-03-19T17:35:32.442Z,8.05
2019-03-19T17:38:01.727Z,9.05
2019-03-19T17:40:40.541Z,10.40
2019-03-19T17:43:01.372Z,5.33
2019-03-19T17:45:30.720Z,7.12
2019-03-19T17:47:59.836Z,7.75
2019-03-19T17:50:33.790Z,6.15
2019-03-19T17:53:02.836Z,6.03
2019-03-19T17:55:32.128Z,6.30
2019-03-19T17:58:01.281Z,10.40
2019-03-19T18:00:31.936Z,5.75
2019-03-19T18:03:01.086Z,8.30
2019-03-19T18:05:30.310Z,6.03
2019-03-19T18:07:59.427Z,8.98
2019-03-19T18:10:28.665Z,5.70
2019-03-19T18:12:57.939Z,8.18
2019-03-19T18:15:27.174Z,7.22
2019-03-19T18:17:56.252Z,9.98
2019-03-19T18:20:25.565Z,5.90
2019-03-19T18:22:54.904Z,4.53
2019-03-19T18:25:24.065Z,5.58
2019-03-19T18:27:53.367Z,10.75
2019-03-19T18:30:24.404Z,6.08
2019-03-19T18:32:53.539Z,6.92
2019-03-19T18:35:22.641Z,5.20
2019-03-19T18:37:51.816Z,5.90
2019-03-19T18:40:21.284Z,6.33
2019-03-19T18:42:50.459Z,6.35
2019-03-19T18:45:20.441Z,5.97
2019-03-19T18:47:49.723Z,12.53
2019-03-19T18:50:20.787Z,7.97
2019-03-19T18:52:50.448Z,5.05
2019-03-19T18:55:19.781Z,7.17
2019-03-19T18:57:48.925Z,13.68
2019-03-19T19:00:18.964Z,5.28
2019-03-19T19:02:50.129Z,7.05
2019-03-19T19:05:19.866Z,5.62
2019-03-19T19:07:49.205Z,6.40
2019-03-19T19:10:21.128Z,6.00
2019-03-19T19:12:50.065Z,6.65
2019-03-19T19:15:23.954Z,6.95
2019-03-19T19:17:53.190Z,7.87
2019-03-19T19:20:22.844Z,7.42
2019-03-19T19:22:52.077Z,7.60
2019-03-19T19:25:25.627Z,7.47
2019-03-19T19:27:55.103Z,5.70
2019-03-19T19:30:30.327Z,6.03
2019-03-19T19:33:02.517Z,6.37
2019-03-19T19:35:32.086Z,7.00
2019-03-19T19:38:03.877Z,6.72
2019-03-19T19:40:35.080Z,8.00
2019-03-19T19:43:05.551Z,7.28
2019-03-19T19:45:35.211Z,6.70
2019-03-19T19:48:06.072Z,5.42
2019-03-19T19:50:36.115Z,9.28
2019-03-19T19:53:05.662Z,5.85
2019-03-19T19:55:35.406Z,8.23
2019-03-19T19:58:05.152Z,5.55
2019-03-19T20:00:34.492Z,8.00
2019-03-19T20:03:11.765Z,8.08
2019-03-19T20:05:34.669Z,9.40
2019-03-19T20:08:04.260Z,5.60
2019-03-19T20:10:33.510Z,6.55
2019-03-19T20:13:02.925Z,9.05
2019-03-19T20:15:32.108Z,7.10
2019-03-19T20:18:01.378Z,6.78
2019-03-19T20:20:32.881Z,4.47
2019-03-19T20:23:02.108Z,6.85
2019-03-19T20:25:31.532Z,5.62
2019-03-19T20:28:00.616Z,8.43
2019-03-19T20:30:29.841Z,7.67
2019-03-19T20:32:59.184Z,7.85
2019-03-19T20:35:28.364Z,6.25
2019-03-19T20:37:57.631Z,7.75
2019-03-19T20:40:26.973Z,8.95
2019-03-19T20:42:56.234Z,10.20
2019-03-19T20:45:29.147Z,8.48
2019-03-19T20:47:58.308Z,7.15
2019-03-19T20:50:35.744Z,7.35
2019-03-19T20:53:05.128Z,6.72
2019-03-19T20:55:34.410Z,9.65
2019-03-19T20:58:03.611Z,6.08
2019-03-19T21:00:32.942Z,7.05
2019-03-19T21:03:02.237Z,9.40
2019-03-19T21:05:31.335Z,9.28
2019-03-19T21:08:00.725Z,7.08
2019-03-19T21:10:29.969Z,6.90
2019-03-19T21:12:59.447Z,7.42
2019-03-19T21:15:31.664Z,9.90
2019-03-19T21:18:00.933Z,5.83
2019-03-19T21:20:30.296Z,4.87
2019-03-19T21:22:59.603Z,7.08
2019-03-19T21:25:28.818Z,6.53
2019-03-19T21:27:58.173Z,9.80
2019-03-19T21:30:27.433Z,6.50
2019-03-19T21:32:56.777Z,6.75
2019-03-19T21:35:26.268Z,7.60
2019-03-19T21:37:55.481Z,9.33
2019-03-19T21:40:24.702Z,8.95
2019-03-19T21:42:54.086Z,7.55
2019-03-19T21:45:23.532Z,11.15
2019-03-19T21:47:52.734Z,10.70
2019-03-19T21:50:23.037Z,10.28
2019-03-19T21:52:52.317Z,7.33
2019-03-19T21:55:21.430Z,10.95
2019-03-19T21:57:50.767Z,8.83
2019-03-19T22:00:24.579Z,6.70
2019-03-19T22:02:53.874Z,6.25
2019-03-19T22:05:22.992Z,9.05
2019-03-19T22:07:52.219Z,12.37
2019-03-19T22:10:21.967Z,11.97
2019-03-19T22:12:51.369Z,7.17
2019-03-19T22:15:26.742Z,8.78
2019-03-19T22:17:56.110Z,7.83
2019-03-19T22:20:25.353Z,8.33
2019-03-19T22:22:54.688Z,11.08
2019-03-19T22:25:24.025Z,7.37
2019-03-19T22:27:53.322Z,5.95
2019-03-19T22:30:22.837Z,10.60
2019-03-19T22:32:52.134Z,9.65
2019-03-19T22:35:21.415Z,9.53
2019-03-19T22:37:50.671Z,11.85
2019-03-19T22:40:19.834Z,9.55
2019-03-19T22:42:49.020Z,9.35
2019-03-19T22:45:18.851Z,8.60
2019-03-19T22:47:48.115Z,8.55
2019-03-19T22:50:17.397Z,7.80
2019-03-19T22:52:48.245Z,12.80
2019-03-19T22:55:28.103Z,9.48
2019-03-19T22:57:48.472Z,15.43
2019-03-19T23:00:38.369Z,10.58
2019-03-19T23:03:08.114Z,9.55
2019-03-19T23:05:37.300Z,10.35
2019-03-19T23:08:06.392Z,7.75
2019-03-19T23:10:37.800Z,5.55
2019-03-19T23:13:12.027Z,9.58
2019-03-19T23:15:41.348Z,11.78
2019-03-19T23:18:10.505Z,8.68
2019-03-19T23:20:39.748Z,10.15
2019-03-19T23:23:08.954Z,9.20
2019-03-19T23:25:38.138Z,10.78
2019-03-19T23:28:07.502Z,12.65
2019-03-19T23:30:36.971Z,19.25
2019-03-19T23:33:06.568Z,16.12
2019-03-19T23:35:35.663Z,13.80
2019-03-19T23:38:04.993Z,12.25
2019-03-19T23:40:34.129Z,12.82
2019-03-19T23:43:03.390Z,8.25
2019-03-19T23:45:32.627Z,8.98
2019-03-19T23:48:01.932Z,13.28
2019-03-19T23:50:30.996Z,13.48
2019-03-19T23:53:00.466Z,11.03
2019-03-19T23:55:29.828Z,12.03
2019-03-19T23:57:59.023Z,14.63
